KRAL/RAL METAR and TAF weather

Enter ICAO airport designator
Station Type Date Time Source
KRAL METAR 2023/01/30 11:53 UTC NOAA

KRAL 301153Z AUTO 00000KT 10SM SCT050 OVC075 08/06 A2993 RMK AO2 SLP126 60001 70003 T00780056 10089 20061 53004 $


Station Type Date Time Source
KRAL Decoded METAR 2023/01/30 11:53 UTC NOAA

RIVERSIDE MUNICIPAL AIRPORT , CA, United States (KRAL) 33-57N 117-27W 252M
Jan 30, 2023 - 06:53 AM EST / 2023.01.30 1153 UTC
Wind: Calm:0
Visibility: 10 mile(s):0
Sky conditions: overcast
Temperature: 46.0 F (7.8 C)
Dew Point: 42.1 F (5.6 C)
Relative Humidity: 85%
Pressure (altimeter): 29.93 in. Hg (1013 hPa)
Pressure tendency: 0.01 inches (0.4 hPa) higher than three hours ago
ob: KRAL 301153Z AUTO 00000KT 10SM SCT050 OVC075 08/06 A2993 RMK AO2 SLP126 60001 70003 T00780056 10089 20061 53004
cycle: 12

Station Type Date Time Source
KRAL TAF UTC NOAA

Error!

Example: see airport list